Time;durP1;ratioP1;P1;durP2;ratioP2;P2;SDS_P1;SDS_P2;PMS_P1;PMS_P2;Temp;Humidity;BMP_temperature;BMP_pressure;BME280_temperature;BME280_humidity;BME280_pressure;Samples;Min_cycle;Max_cycle;Signal;HPM_P1;HPM_P2
2022/06/13 00:01:57;;;;;;;3.90;3.60;;;19.00;99.90;;;;;;4970720;28;20189;-70
2022/06/13 00:04:23;;;;;;;5.03;3.40;;;19.00;99.90;;;;;;4971381;28;20207;-70
2022/06/13 00:06:48;;;;;;;3.70;3.40;;;18.90;99.90;;;;;;4973565;28;20227;-70
2022/06/13 00:09:14;;;;;;;4.20;3.90;;;18.90;99.90;;;;;;4962702;28;20215;-70
2022/06/13 00:11:41;;;;;;;5.15;4.20;;;18.80;99.90;;;;;;4970358;28;20810;-70
2022/06/13 00:14:07;;;;;;;4.30;3.90;;;18.80;99.90;;;;;;4968481;28;20180;-70
2022/06/13 00:16:33;;;;;;;4.07;3.67;;;18.70;99.90;;;;;;4968650;28;20665;-70
2022/06/13 00:18:59;;;;;;;4.05;3.70;;;19.00;99.90;;;;;;4966596;28;20188;-70
2022/06/13 00:21:27;;;;;;;4.10;3.70;;;18.70;99.90;;;;;;4972517;28;20191;-70
2022/06/13 00:23:54;;;;;;;5.05;4.45;;;18.70;99.90;;;;;;4971109;28;20188;-70
2022/06/13 00:26:21;;;;;;;4.28;3.88;;;18.70;99.90;;;;;;4969202;28;20180;-70
2022/06/13 00:28:48;;;;;;;4.35;3.90;;;18.80;99.90;;;;;;4971047;28;20199;-70
2022/06/13 00:31:14;;;;;;;4.40;4.10;;;18.70;99.90;;;;;;4970008;28;20204;-70
2022/06/13 00:33:39;;;;;;;5.03;4.13;;;18.70;99.90;;;;;;4968701;28;20180;-70
2022/06/13 00:36:06;;;;;;;4.50;4.10;;;18.70;99.90;;;;;;4969453;28;20186;-70
2022/06/13 00:38:32;;;;;;;4.18;3.60;;;18.80;99.90;;;;;;4966959;28;20267;-70
2022/06/13 00:40:58;;;;;;;4.82;4.40;;;18.80;99.90;;;;;;4969569;28;20215;-70
2022/06/13 00:43:24;;;;;;;4.25;3.95;;;18.70;99.90;;;;;;4971494;28;20295;-70
2022/06/13 00:45:49;;;;;;;4.73;3.87;;;18.70;99.90;;;;;;4971447;28;20295;-71
2022/06/13 00:48:17;;;;;;;4.53;4.13;;;18.80;99.90;;;;;;4963860;28;20193;-70
2022/06/13 00:50:53;;;;;;;4.57;3.47;;;18.60;99.90;;;;;;4973548;28;20216;-71
2022/06/13 00:53:24;;;;;;;5.20;4.70;;;18.50;99.90;;;;;;4972004;28;20267;-71
2022/06/13 00:55:56;;;;;;;4.95;4.55;;;18.50;99.90;;;;;;4974456;28;21526;-70
2022/06/13 00:58:23;;;;;;;6.50;5.03;;;18.40;99.90;;;;;;4965528;28;20227;-70
2022/06/13 01:00:52;;;;;;;6.85;4.22;;;18.30;99.90;;;;;;4972870;28;20208;-70
2022/06/13 01:03:18;;;;;;;4.47;4.07;;;18.30;99.90;;;;;;4972400;28;20211;-70
2022/06/13 01:05:46;;;;;;;4.60;4.20;;;18.40;99.90;;;;;;4976673;28;20180;-70
2022/06/13 01:08:13;;;;;;;5.03;4.53;;;18.30;99.90;;;;;;4974660;28;20447;-70
2022/06/13 01:14:11;;;;;;;4.55;4.22;;;18.50;99.90;;;;;;4978874;28;20781;-70
2022/06/13 01:17:15;;;;;;;6.05;4.70;;;18.40;99.90;;;;;;4965649;28;20278;-70
2022/06/13 01:20:02;;;;;;;5.70;5.13;;;18.40;99.90;;;;;;4968816;28;20207;-70
2022/06/13 01:23:05;;;;;;;6.25;5.20;;;18.30;99.90;;;;;;4984264;28;20251;-70
2022/06/13 01:25:49;;;;;;;5.38;4.93;;;18.20;99.90;;;;;;4974459;28;20192;-70
2022/06/13 01:28:39;;;;;;;5.13;4.65;;;18.20;99.90;;;;;;4967191;28;20188;-70
2022/06/13 01:31:24;;;;;;;5.90;4.78;;;18.10;99.90;;;;;;4974072;28;20219;-70
2022/06/13 01:33:55;;;;;;;5.70;5.20;;;18.30;99.90;;;;;;4975123;28;20195;-70
2022/06/13 01:36:49;;;;;;;8.98;5.45;;;18.10;99.90;;;;;;4973694;28;20242;-70
2022/06/13 01:39:28;;;;;;;6.93;4.85;;;18.10;99.90;;;;;;4970099;28;20227;-70
2022/06/13 01:42:15;;;;;;;5.40;5.00;;;18.10;99.90;;;;;;4971804;28;20184;-70
2022/06/13 01:45:03;;;;;;;4.93;4.50;;;18.20;99.90;;;;;;4970327;28;20223;-70
2022/06/13 01:47:34;;;;;;;4.60;4.20;;;18.20;99.90;;;;;;4970909;28;20203;-70
2022/06/13 01:50:10;;;;;;;4.63;4.30;;;18.20;99.90;;;;;;4974206;28;20215;-70
2022/06/13 01:52:39;;;;;;;4.40;4.10;;;18.20;99.90;;;;;;4967836;28;20278;-70
2022/06/13 01:55:33;;;;;;;4.97;4.47;;;18.20;99.90;;;;;;4974160;28;20207;-70
2022/06/13 01:58:23;;;;;;;4.90;4.50;;;18.10;99.90;;;;;;4966413;28;20436;-70
2022/06/13 02:00:55;;;;;;;4.30;4.00;;;18.10;99.90;;;;;;4970110;28;20739;-70
2022/06/13 02:03:35;;;;;;;5.72;5.22;;;18.20;99.90;;;;;;4971406;28;20263;-70
2022/06/13 02:06:38;;;;;;;5.35;4.85;;;18.20;99.90;;;;;;4973404;28;20196;-70
2022/06/13 02:09:18;;;;;;;4.50;4.20;;;18.20;99.90;;;;;;4958966;28;20224;-70
2022/06/13 02:11:45;;;;;;;4.70;4.38;;;18.20;99.90;;;;;;4973114;28;20752;-70
2022/06/13 02:14:19;;;;;;;5.43;4.97;;;18.20;99.90;;;;;;4972602;28;20180;-70
2022/06/13 02:17:01;;;;;;;5.43;4.57;;;18.30;99.90;;;;;;4969021;28;20177;-70
2022/06/13 02:19:31;;;;;;;4.85;4.55;;;18.70;99.90;;;;;;4970249;28;20656;-70
2022/06/13 02:21:59;;;;;;;5.13;4.75;;;18.30;99.90;;;;;;4972486;28;20184;-70
2022/06/13 02:24:35;;;;;;;4.60;4.30;;;18.30;99.90;;;;;;4973548;28;20208;-70
2022/06/13 02:27:03;;;;;;;5.00;4.60;;;18.20;99.90;;;;;;4971856;28;20662;-70
2022/06/13 02:29:53;;;;;;;4.78;4.38;;;18.30;99.90;;;;;;4970964;28;20196;-70
2022/06/13 02:32:31;;;;;;;4.72;4.13;;;18.40;99.90;;;;;;4970246;28;20199;-70
2022/06/13 02:35:17;;;;;;;3.95;3.63;;;18.40;99.90;;;;;;4972559;28;20183;-70
2022/06/13 02:38:23;;;;;;;4.20;3.80;;;18.70;99.90;;;;;;4969931;28;20176;-70
2022/06/13 02:40:56;;;;;;;4.07;3.78;;;18.30;99.90;;;;;;4975102;28;21288;-70
2022/06/13 02:43:27;;;;;;;4.53;4.13;;;18.30;99.90;;;;;;4971361;28;20554;-70
2022/06/13 02:45:55;;;;;;;5.05;4.55;;;18.40;99.90;;;;;;4974254;28;20187;-70
2022/06/13 02:48:49;;;;;;;4.05;3.75;;;18.20;99.90;;;;;;4964548;28;20240;-70
2022/06/13 02:51:40;;;;;;;4.10;3.30;;;18.20;99.90;;;;;;4971880;28;20255;-70
2022/06/13 02:54:17;;;;;;;4.30;3.92;;;18.20;99.90;;;;;;4970435;28;20191;-70
2022/06/13 02:57:23;;;;;;;3.47;3.20;;;18.20;99.90;;;;;;4964175;28;20595;-70
2022/06/13 02:59:52;;;;;;;4.50;4.10;;;18.10;99.90;;;;;;4959593;28;20298;-70
2022/06/13 03:02:27;;;;;;;7.07;3.65;;;18.00;99.90;;;;;;4968081;28;20690;-70
2022/06/13 03:05:01;;;;;;;4.15;3.85;;;18.00;99.90;;;;;;4972394;28;20210;-70
2022/06/13 03:07:35;;;;;;;5.00;4.50;;;17.90;99.90;;;;;;4972769;28;20183;-69
2022/06/13 03:10:14;;;;;;;3.95;3.65;;;17.70;99.90;;;;;;4966869;28;20266;-69
2022/06/13 03:13:01;;;;;;;5.07;3.70;;;17.80;99.90;;;;;;4971055;28;20196;-70
2022/06/13 03:15:57;;;;;;;4.00;3.65;;;17.80;99.90;;;;;;4972364;28;20213;-70
2022/06/13 03:18:28;;;;;;;3.78;3.40;;;17.80;99.90;;;;;;4965013;28;20193;-70
2022/06/13 03:21:09;;;;;;;3.70;3.30;;;17.80;99.90;;;;;;4970348;28;20209;-69
2022/06/13 03:23:48;;;;;;;4.05;3.75;;;17.90;99.90;;;;;;4973853;28;20271;-69
2022/06/13 03:26:27;;;;;;;3.70;3.40;;;17.80;99.90;;;;;;4969235;28;20705;-69
2022/06/13 03:29:17;;;;;;;5.28;3.58;;;17.70;99.90;;;;;;4971822;28;20222;-69
2022/06/13 03:31:57;;;;;;;6.32;3.22;;;17.80;99.90;;;;;;4970055;28;20224;-70
2022/06/13 03:34:34;;;;;;;4.53;3.17;;;17.80;99.90;;;;;;4970574;28;20180;-69
2022/06/13 03:37:37;;;;;;;5.30;3.83;;;17.60;99.90;;;;;;4970876;28;20203;-69
2022/06/13 03:40:20;;;;;;;3.97;3.60;;;17.50;99.90;;;;;;5006294;28;20328;-69
2022/06/13 03:42:48;;;;;;;4.18;3.50;;;17.40;99.90;;;;;;4972248;28;20706;-69
2022/06/13 03:45:20;;;;;;;4.05;3.63;;;17.30;99.90;;;;;;4965614;28;20185;-69
2022/06/13 03:48:12;;;;;;;4.05;3.65;;;17.40;99.90;;;;;;4965478;28;20177;-70
2022/06/13 03:50:50;;;;;;;4.40;4.00;;;17.40;99.90;;;;;;4969722;28;20203;-69
2022/06/13 03:53:37;;;;;;;5.75;4.00;;;17.20;99.90;;;;;;4975185;28;20180;-70
2022/06/13 03:56:25;;;;;;;4.15;3.40;;;17.30;99.90;;;;;;4971023;28;20180;-70
2022/06/13 03:59:03;;;;;;;6.13;3.97;;;17.30;99.90;;;;;;4967378;28;20180;-69
2022/06/13 04:01:36;;;;;;;4.47;3.72;;;17.40;99.90;;;;;;4962048;28;20596;-69
2022/06/13 04:04:03;;;;;;;6.75;3.75;;;17.50;99.90;;;;;;4967904;28;20192;-70
2022/06/13 04:06:33;;;;;;;4.03;3.58;;;17.20;99.90;;;;;;4971133;28;20675;-69
2022/06/13 04:09:02;;;;;;;5.97;3.63;;;17.20;99.90;;;;;;4964686;28;20234;-70
2022/06/13 04:11:49;;;;;;;6.50;4.35;;;17.30;99.90;;;;;;4970927;28;20304;-70
2022/06/13 04:14:34;;;;;;;3.63;3.22;;;17.50;99.90;;;;;;4970235;28;20701;-54
2022/06/13 04:17:06;;;;;;;4.35;3.60;;;17.50;99.90;;;;;;4969330;28;20238;-58
2022/06/13 04:19:47;;;;;;;6.57;3.50;;;17.30;99.90;;;;;;4966178;28;20279;-55
2022/06/13 04:22:21;;;;;;;6.38;3.70;;;17.40;99.90;;;;;;4974021;28;20716;-55
2022/06/13 04:25:03;;;;;;;4.57;3.30;;;17.40;99.90;;;;;;4965091;28;20197;-55
2022/06/13 04:27:41;;;;;;;6.90;3.70;;;17.20;99.90;;;;;;4969250;28;20186;-58
2022/06/13 04:30:14;;;;;;;5.13;3.88;;;17.40;99.90;;;;;;4968250;28;20239;-54
2022/06/13 04:32:56;;;;;;;8.35;4.25;;;17.20;99.90;;;;;;4967767;28;20341;-54
2022/06/13 04:35:22;;;;;;;4.93;3.20;;;17.30;99.90;;;;;;4967433;28;20228;-54
2022/06/13 04:37:49;;;;;;;6.10;3.20;;;17.50;99.90;;;;;;4968715;28;20184;-55
2022/06/13 04:40:22;;;;;;;3.92;3.30;;;18.10;99.90;;;;;;4961534;28;20215;-53
2022/06/13 04:42:49;;;;;;;9.90;3.20;;;17.90;99.90;;;;;;4964745;28;20669;-53
2022/06/13 04:45:25;;;;;;;4.85;3.30;;;18.10;99.90;;;;;;4967253;28;20195;-52
2022/06/13 04:47:53;;;;;;;6.90;3.88;;;18.30;99.90;;;;;;4966511;28;20291;-59
2022/06/13 04:50:41;;;;;;;5.32;3.30;;;18.40;99.90;;;;;;4963556;28;20780;-62
2022/06/13 04:53:15;;;;;;;6.60;3.67;;;18.70;99.90;;;;;;4967758;28;20201;-62
2022/06/13 04:55:43;;;;;;;4.53;3.70;;;18.60;99.90;;;;;;4969366;28;20172;-62
2022/06/13 04:58:37;;;;;;;6.25;3.80;;;18.60;99.90;;;;;;4966200;28;20184;-61
2022/06/13 05:01:10;;;;;;;4.45;3.47;;;18.40;99.90;;;;;;4964393;28;20277;-66
2022/06/13 05:03:44;;;;;;;4.28;3.53;;;17.80;99.90;;;;;;4968542;28;20200;-65
2022/06/13 05:06:37;;;;;;;4.90;3.33;;;17.70;99.90;;;;;;4966884;28;20199;-65
2022/06/13 05:09:25;;;;;;;3.92;3.25;;;17.70;99.90;;;;;;4970197;28;20295;-64
2022/06/13 05:12:12;;;;;;;5.22;3.00;;;17.80;99.90;;;;;;4967936;28;20661;-60
2022/06/13 05:14:45;;;;;;;5.43;3.42;;;18.20;99.90;;;;;;4969939;28;20179;-65
2022/06/13 05:17:32;;;;;;;10.55;3.80;;;17.90;99.90;;;;;;4964419;28;20246;-67
2022/06/13 05:20:14;;;;;;;4.40;3.13;;;18.00;99.90;;;;;;4968153;28;20756;-65
2022/06/13 05:23:01;;;;;;;4.53;2.80;;;18.00;99.90;;;;;;4970418;28;20599;-63
2022/06/13 05:25:43;;;;;;;7.00;3.60;;;18.00;99.90;;;;;;4966227;28;20230;-63
2022/06/13 05:28:12;;;;;;;6.82;4.55;;;17.50;99.90;;;;;;4966803;28;20660;-62
2022/06/13 05:30:43;;;;;;;4.03;3.00;;;18.00;99.90;;;;;;4968016;28;20216;-67
2022/06/13 05:33:13;;;;;;;7.22;4.15;;;18.00;99.90;;;;;;4962803;28;20192;-64
2022/06/13 05:35:43;;;;;;;6.53;3.90;;;18.10;99.90;;;;;;4968160;28;20210;-61
2022/06/13 05:38:21;;;;;;;10.45;3.60;;;18.10;99.90;;;;;;4969576;28;20227;-60
2022/06/13 05:40:47;;;;;;;6.50;3.60;;;18.10;99.90;;;;;;4968642;28;20208;-60
2022/06/13 05:43:13;;;;;;;4.50;3.67;;;18.10;99.90;;;;;;4965932;28;20260;-60
2022/06/13 05:45:40;;;;;;;4.80;3.30;;;18.10;99.90;;;;;;4974068;28;20190;-61
2022/06/13 05:48:13;;;;;;;4.60;3.45;;;18.20;99.90;;;;;;4972366;28;20195;-60
2022/06/13 05:50:38;;;;;;;5.78;3.30;;;18.30;99.90;;;;;;4973513;28;20212;-60
2022/06/13 05:53:04;;;;;;;5.40;3.33;;;18.50;99.90;;;;;;4968648;28;20221;-61
2022/06/13 05:55:30;;;;;;;4.40;3.33;;;18.30;99.90;;;;;;4972188;28;20701;-68
2022/06/13 05:57:56;;;;;;;5.03;3.40;;;18.40;99.90;;;;;;4973510;28;20451;-69
2022/06/13 06:00:25;;;;;;;5.22;3.90;;;18.40;99.90;;;;;;4972638;28;20222;-68
2022/06/13 06:02:51;;;;;;;5.80;3.83;;;18.40;99.80;;;;;;4970624;28;20202;-70
2022/06/13 06:05:16;;;;;;;9.83;4.17;;;18.40;99.90;;;;;;4972608;28;20541;-64
2022/06/13 06:07:42;;;;;;;5.53;3.80;;;18.40;99.90;;;;;;4968216;28;20247;-62
2022/06/13 06:10:16;;;;;;;5.68;3.95;;;18.60;99.80;;;;;;4968071;28;20547;-62
2022/06/13 06:12:42;;;;;;;5.65;3.33;;;18.60;99.90;;;;;;4972320;28;20191;-62
2022/06/13 06:15:09;;;;;;;4.53;3.60;;;18.60;99.20;;;;;;4965953;28;20184;-62
2022/06/13 06:17:34;;;;;;;5.50;4.00;;;18.60;99.50;;;;;;4967471;28;20549;-62
2022/06/13 06:20:00;;;;;;;4.90;3.40;;;18.60;98.70;;;;;;4966566;28;20211;-62
2022/06/13 06:22:25;;;;;;;5.13;3.10;;;18.70;98.20;;;;;;4966372;28;20649;-62
2022/06/13 06:24:51;;;;;;;8.60;3.53;;;18.70;98.30;;;;;;4967282;28;20574;-70
2022/06/13 06:27:17;;;;;;;4.63;3.37;;;18.90;97.90;;;;;;4966465;28;20185;-67
2022/06/13 06:29:43;;;;;;;5.37;3.70;;;19.00;97.60;;;;;;4963393;28;20197;-68
2022/06/13 06:32:08;;;;;;;10.53;5.30;;;19.10;97.20;;;;;;4966181;28;20248;-69
2022/06/13 06:34:35;;;;;;;6.73;3.67;;;19.20;96.80;;;;;;4967732;28;20447;-69
2022/06/13 06:37:01;;;;;;;5.03;2.90;;;19.70;97.20;;;;;;4967827;28;20192;-69
2022/06/13 06:39:26;;;;;;;4.40;2.93;;;19.40;96.60;;;;;;4964395;28;20207;-68
2022/06/13 06:41:52;;;;;;;6.83;3.70;;;19.50;95.70;;;;;;4969739;28;20192;-68
2022/06/13 06:44:18;;;;;;;3.23;2.80;;;19.30;95.00;;;;;;4966260;28;20242;-68
2022/06/13 06:46:44;;;;;;;5.30;3.00;;;19.40;95.20;;;;;;4967869;28;20463;-68
2022/06/13 06:49:10;;;;;;;6.23;3.73;;;19.50;94.60;;;;;;4971628;28;20204;-69
2022/06/13 06:51:35;;;;;;;4.73;3.60;;;19.60;94.90;;;;;;4966127;28;20212;-70
2022/06/13 07:02:14;;;;;;;6.15;2.85;;;20.20;93.20;;;;;;4965541;28;20226;-69
2022/06/13 07:04:39;;;;;;;4.67;3.07;;;20.50;92.90;;;;;;4970082;28;20287;-71
2022/06/13 07:07:05;;;;;;;3.50;2.80;;;20.80;92.10;;;;;;4967193;28;20191;-71
2022/06/13 07:09:30;;;;;;;4.03;2.50;;;21.60;91.60;;;;;;4971500;28;20212;-71
2022/06/13 07:11:57;;;;;;;6.30;3.03;;;23.20;87.10;;;;;;4966229;28;20211;-68
2022/06/13 07:14:32;;;;;;;4.40;2.83;;;25.10;80.90;;;;;;4971580;28;20658;-69
2022/06/13 07:16:59;;;;;;;3.70;2.80;;;25.80;75.50;;;;;;4969113;28;20478;-68
2022/06/13 07:19:25;;;;;;;4.57;3.53;;;27.50;70.00;;;;;;4967301;28;20962;-71
2022/06/13 07:21:51;;;;;;;4.23;3.80;;;30.00;62.60;;;;;;4966652;28;20444;-68
2022/06/13 07:24:17;;;;;;;4.57;2.80;;;29.50;57.50;;;;;;4970030;28;20458;-69
2022/06/13 07:26:43;;;;;;;6.00;2.67;;;29.50;57.30;;;;;;4969585;28;20269;-59
2022/06/13 07:29:09;;;;;;;4.70;2.83;;;30.20;55.60;;;;;;4966051;28;20209;-64
2022/06/13 07:31:48;;;;;;;5.03;2.60;;;30.80;54.30;;;;;;4969590;28;20555;-65
2022/06/13 07:34:16;;;;;;;6.73;2.90;;;31.40;52.10;;;;;;4960693;28;20815;-69
2022/06/13 07:36:42;;;;;;;5.60;2.60;;;31.80;50.30;;;;;;4960020;28;20486;-70
2022/06/13 07:39:08;;;;;;;5.10;3.50;;;31.80;48.90;;;;;;4969584;28;21000;-68
2022/06/13 07:41:36;;;;;;;3.70;2.50;;;32.10;49.00;;;;;;4961858;28;20450;-69
2022/06/13 07:44:02;;;;;;;4.20;2.70;;;32.50;47.30;;;;;;4964782;28;20795;-66
2022/06/13 07:46:30;;;;;;;5.47;2.90;;;32.40;47.80;;;;;;4968057;28;20535;-69
2022/06/13 07:48:56;;;;;;;3.43;2.70;;;33.50;45.40;;;;;;4969765;28;20452;-66
2022/06/13 07:51:23;;;;;;;4.90;2.47;;;33.40;45.70;;;;;;4966888;28;20900;-67
2022/06/13 07:53:49;;;;;;;2.93;2.60;;;33.40;44.30;;;;;;4968774;28;20441;-66
2022/06/13 07:56:19;;;;;;;3.83;2.70;;;33.20;44.20;;;;;;4965848;28;20805;-66
2022/06/13 07:58:47;;;;;;;8.83;4.63;;;33.40;44.20;;;;;;4967296;28;20550;-67
2022/06/13 08:01:13;;;;;;;5.93;3.37;;;33.20;44.20;;;;;;4970041;28;20863;-66
2022/06/13 08:03:40;;;;;;;5.43;3.10;;;33.50;44.00;;;;;;4965734;28;20463;-67
2022/06/13 08:06:06;;;;;;;3.30;2.93;;;34.50;42.20;;;;;;4967423;28;20447;-69
2022/06/13 08:08:35;;;;;;;3.30;2.70;;;34.60;41.80;;;;;;4970698;28;20431;-69
2022/06/13 08:11:03;;;;;;;6.73;3.43;;;35.50;40.90;;;;;;4964284;28;20486;-67
2022/06/13 08:13:30;;;;;;;3.00;2.70;;;34.40;41.40;;;;;;4967526;28;20445;-68
2022/06/13 08:15:56;;;;;;;7.80;3.00;;;33.20;41.30;;;;;;4967710;28;21008;-70
2022/06/13 08:18:22;;;;;;;3.27;2.67;;;34.10;42.90;;;;;;4959579;28;20535;-70
2022/06/13 08:20:49;;;;;;;4.57;2.60;;;33.50;43.20;;;;;;4967261;28;20472;-70
2022/06/13 08:23:17;;;;;;;3.70;2.80;;;32.90;41.30;;;;;;4970481;28;20777;-68
2022/06/13 08:25:43;;;;;;;4.33;2.50;;;32.10;43.90;;;;;;4971454;28;20490;-68
2022/06/13 08:28:10;;;;;;;9.70;3.07;;;32.40;43.60;;;;;;4969501;28;20447;-65
2022/06/13 08:30:45;;;;;;;2.73;2.53;;;32.10;43.90;;;;;;4966193;28;20558;-64
2022/06/13 08:33:11;;;;;;;5.67;2.80;;;31.90;44.30;;;;;;4966615;28;20812;-67
2022/06/13 08:35:37;;;;;;;5.97;3.17;;;33.10;42.80;;;;;;4967695;28;20988;-65
2022/06/13 08:38:03;;;;;;;4.77;2.70;;;33.20;43.00;;;;;;4967949;28;20495;-66
2022/06/13 08:40:38;;;;;;;3.63;2.40;;;33.30;41.80;;;;;;4965849;28;20683;-65
2022/06/13 08:43:21;;;;;;;6.20;4.50;;;33.70;40.70;;;;;;4968435;28;20200;-66
2022/06/13 08:45:56;;;;;;;5.13;3.00;;;32.70;41.10;;;;;;4968739;28;20562;-66
2022/06/13 08:48:34;;;;;;;4.00;2.80;;;32.60;42.10;;;;;;4961646;28;20995;-66
2022/06/13 08:51:07;;;;;;;3.20;2.90;;;32.70;42.70;;;;;;4968319;28;20507;-68
2022/06/13 08:53:44;;;;;;;4.17;3.23;;;33.40;41.70;;;;;;4968856;28;20586;-67
2022/06/13 08:56:13;;;;;;;4.50;2.97;;;33.60;41.50;;;;;;4964442;28;20534;-68
2022/06/13 08:58:48;;;;;;;4.53;3.20;;;33.40;41.50;;;;;;4967714;28;20432;-68
2022/06/13 09:01:19;;;;;;;4.20;2.57;;;33.10;42.10;;;;;;4966212;28;20446;-68
2022/06/13 09:03:53;;;;;;;4.30;2.80;;;33.20;41.80;;;;;;4965486;28;20459;-69
2022/06/13 09:06:58;;;;;;;6.87;4.43;;;33.60;40.50;;;;;;4966123;28;20447;-68
2022/06/13 09:09:31;;;;;;;6.23;5.63;;;33.90;40.20;;;;;;4968134;28;20489;-65
2022/06/13 09:12:03;;;;;;;4.70;2.70;;;34.00;40.20;;;;;;4971359;28;20521;-65
2022/06/13 09:14:58;;;;;;;3.97;2.80;;;34.60;39.40;;;;;;4960585;28;20530;-66
2022/06/13 09:17:53;;;;;;;5.17;3.00;;;34.60;39.70;;;;;;4969750;28;20593;-66
2022/06/13 09:20:46;;;;;;;3.30;3.00;;;33.40;40.10;;;;;;4973565;28;20481;-65
2022/06/13 09:23:23;;;;;;;4.50;3.00;;;32.80;41.50;;;;;;4972491;28;20912;-69
2022/06/13 09:25:59;;;;;;;6.73;4.67;;;32.70;41.70;;;;;;4969989;28;20625;-65
2022/06/13 09:28:37;;;;;;;3.30;2.73;;;32.50;41.70;;;;;;4969692;28;20451;-66
2022/06/13 09:31:08;;;;;;;4.90;3.03;;;31.70;42.90;;;;;;4963177;28;20529;-71
2022/06/13 09:33:37;;;;;;;4.70;3.30;;;31.50;42.40;;;;;;4968383;28;20446;-70
2022/06/13 09:36:20;;;;;;;5.80;5.20;;;32.00;40.20;;;;;;4966493;28;20447;-70
2022/06/13 09:38:56;;;;;;;4.77;3.00;;;33.60;40.80;;;;;;4961149;28;20432;-68
2022/06/13 09:42:13;;;;;;;4.30;2.80;;;33.50;39.20;;;;;;4967230;28;20439;-69
2022/06/13 09:44:45;;;;;;;3.97;2.70;;;34.00;37.30;;;;;;4967750;28;20442;-70
2022/06/13 09:47:39;;;;;;;3.60;2.97;;;34.20;36.50;;;;;;4965706;28;20803;-70
2022/06/13 09:50:34;;;;;;;4.80;2.97;;;35.30;35.30;;;;;;4964884;28;20471;-69
2022/06/13 09:53:38;;;;;;;3.60;2.40;;;34.60;35.10;;;;;;4969844;28;20468;-67
2022/06/13 09:56:22;;;;;;;2.93;2.70;;;34.60;36.00;;;;;;4964954;28;20447;-67
2022/06/13 09:59:13;;;;;;;4.30;2.60;;;34.50;35.30;;;;;;4958716;28;20448;-66
2022/06/13 10:01:51;;;;;;;3.90;2.60;;;33.50;36.50;;;;;;4964142;28;20561;-69
2022/06/13 10:05:01;;;;;;;6.90;3.00;;;33.40;37.90;;;;;;4970509;28;20959;-69
2022/06/13 10:07:36;;;;;;;3.83;2.93;;;33.70;37.50;;;;;;4967919;28;20809;-69
2022/06/13 10:10:15;;;;;;;4.80;3.00;;;33.20;36.60;;;;;;4970442;28;20473;-70
2022/06/13 10:12:51;;;;;;;3.90;3.23;;;31.10;40.50;;;;;;4964616;28;20451;-69
2022/06/13 10:15:35;;;;;;;4.53;3.50;;;29.70;41.90;;;;;;4969891;28;20447;-69
2022/06/13 10:18:31;;;;;;;3.27;2.77;;;29.50;43.50;;;;;;4963536;28;20444;-69
2022/06/13 10:20:58;;;;;;;4.10;2.90;;;30.50;40.50;;;;;;4972380;28;20458;-67
2022/06/13 10:23:43;;;;;;;4.27;2.83;;;30.70;40.20;;;;;;4971582;28;20432;-68
2022/06/13 10:26:18;;;;;;;5.83;2.90;;;31.10;39.80;;;;;;4970408;28;20443;-68
2022/06/13 10:28:58;;;;;;;3.90;2.90;;;31.00;40.70;;;;;;4969168;28;20453;-68
2022/06/13 10:31:43;;;;;;;3.60;2.97;;;29.60;41.70;;;;;;4969079;28;20473;-67
2022/06/13 10:34:47;;;;;;;4.37;3.20;;;28.50;44.00;;;;;;4969418;28;20444;-69
2022/06/13 10:37:34;;;;;;;4.83;2.73;;;27.60;44.80;;;;;;4974203;28;20474;-67
2022/06/13 10:40:03;;;;;;;4.47;2.80;;;28.20;44.70;;;;;;4967605;28;20462;-67
2022/06/13 10:42:31;;;;;;;4.13;2.50;;;29.50;42.60;;;;;;4967520;28;20963;-69
2022/06/13 10:44:57;;;;;;;3.83;2.97;;;30.20;41.50;;;;;;4971791;28;20426;-68
2022/06/13 10:47:38;;;;;;;2.93;2.37;;;30.80;39.90;;;;;;4968027;28;20471;-67
2022/06/13 10:50:12;;;;;;;3.63;2.63;;;32.10;37.80;;;;;;4964977;28;20516;-68
2022/06/13 10:52:43;;;;;;;4.90;2.50;;;32.50;36.50;;;;;;4968308;28;20454;-68
2022/06/13 10:55:13;;;;;;;4.80;2.60;;;31.50;37.20;;;;;;4969415;28;20452;-68
2022/06/13 10:57:51;;;;;;;3.53;2.10;;;30.90;40.10;;;;;;4966530;28;20921;-68
2022/06/13 11:00:26;;;;;;;3.30;2.10;;;31.50;39.30;;;;;;4971157;28;21133;-68
2022/06/13 11:02:52;;;;;;;3.00;2.13;;;32.10;38.20;;;;;;4965075;28;20500;-69
2022/06/13 11:05:24;;;;;;;4.97;2.53;;;32.70;37.20;;;;;;4963805;28;20446;-69
2022/06/13 11:07:52;;;;;;;4.00;2.60;;;32.50;36.80;;;;;;4967342;28;20443;-68
2022/06/13 11:10:37;;;;;;;4.23;2.40;;;31.70;37.40;;;;;;4966200;28;21582;-68
2022/06/13 11:13:12;;;;;;;4.10;2.47;;;32.30;37.90;;;;;;4969354;28;21021;-70
2022/06/13 11:24:16;;;;;;;5.33;2.70;;;32.70;36.70;;;;;;4965498;28;20431;-70
2022/06/13 11:29:32;;;;;;;7.03;3.63;;;32.90;36.60;;;;;;4964010;28;20875;-70
2022/06/13 11:32:00;;;;;;;4.00;2.27;;;32.50;36.40;;;;;;4967635;28;20474;-70
2022/06/13 11:34:37;;;;;;;2.83;2.60;;;32.60;36.80;;;;;;4964437;28;20450;-68
2022/06/13 11:37:23;;;;;;;4.77;2.87;;;31.50;37.40;;;;;;4966480;28;20510;-72
2022/06/13 11:39:51;;;;;;;3.63;2.87;;;30.30;39.70;;;;;;4967781;28;20455;-71
2022/06/13 11:42:18;;;;;;;3.40;3.10;;;29.40;41.50;;;;;;4966839;28;20446;-73
2022/06/13 11:44:55;;;;;;;3.67;2.70;;;29.00;41.30;;;;;;4967626;28;20989;-72
2022/06/13 11:47:22;;;;;;;5.27;4.77;;;29.00;41.50;;;;;;4960940;28;20455;-63
2022/06/13 11:49:57;;;;;;;4.40;3.07;;;27.80;42.30;;;;;;4968286;28;20464;-65
2022/06/13 11:55:31;;;;;;;3.70;3.00;;;28.10;43.90;;;;;;4966280;28;20463;-63
2022/06/13 11:57:59;;;;;;;3.10;2.80;;;27.90;43.40;;;;;;4970588;28;20482;-65
2022/06/13 12:00:49;;;;;;;3.40;3.03;;;27.40;44.40;;;;;;4967943;28;20466;-66
2022/06/13 12:03:24;;;;;;;4.67;3.50;;;27.10;46.30;;;;;;4968673;28;20463;-65
2022/06/13 12:06:14;;;;;;;4.70;3.53;;;26.90;46.80;;;;;;4963240;28;20528;-67
2022/06/13 12:08:39;;;;;;;2.80;2.60;;;26.40;47.80;;;;;;4960133;28;20450;-70
2022/06/13 12:11:21;;;;;;;4.30;2.93;;;26.20;47.70;;;;;;4956105;28;20482;-80
2022/06/13 12:13:48;;;;;;;3.90;2.50;;;26.10;46.90;;;;;;4968028;28;20190;-78
2022/06/13 12:16:27;;;;;;;2.70;2.47;;;26.00;45.50;;;;;;4968398;28;20443;-78
2022/06/13 12:19:32;;;;;;;5.03;2.40;;;25.80;45.10;;;;;;4963860;28;20438;-77
2022/06/13 12:22:20;;;;;;;3.70;2.40;;;25.70;45.20;;;;;;4966635;28;20500;-70
2022/06/13 12:24:52;;;;;;;4.60;2.53;;;25.70;45.30;;;;;;4970143;28;20546;-69
2022/06/13 12:27:39;;;;;;;5.83;2.60;;;25.80;47.00;;;;;;4969795;28;20464;-67
2022/06/13 12:30:28;;;;;;;3.00;2.17;;;25.90;46.10;;;;;;4962162;28;20528;-67
2022/06/13 12:33:01;;;;;;;5.53;3.00;;;25.90;46.80;;;;;;4965122;28;20502;-68
2022/06/13 12:35:39;;;;;;;7.33;2.33;;;25.70;47.30;;;;;;4966738;28;20972;-62
2022/06/13 12:38:35;;;;;;;3.20;2.23;;;25.80;46.90;;;;;;4969437;28;20528;-61
2022/06/13 12:41:28;;;;;;;3.03;1.93;;;25.60;45.80;;;;;;4964794;28;20468;-66
2022/06/13 12:44:02;;;;;;;2.47;2.20;;;25.50;46.00;;;;;;4973042;28;20429;-63
2022/06/13 12:47:00;;;;;;;3.33;2.60;;;25.60;45.10;;;;;;4968429;28;20505;-63
2022/06/13 12:49:34;;;;;;;5.80;2.83;;;25.40;45.40;;;;;;4970754;28;20459;-74
2022/06/13 12:52:30;;;;;;;2.87;2.20;;;25.50;46.70;;;;;;4973992;28;20455;-64
2022/06/13 12:55:05;;;;;;;3.63;2.50;;;25.60;46.20;;;;;;4970591;28;20443;-61
2022/06/13 12:57:59;;;;;;;2.37;2.17;;;25.20;45.20;;;;;;4969156;28;20473;-62
2022/06/13 13:01:02;;;;;;;3.27;2.30;;;25.70;46.40;;;;;;4963596;28;20468;-62
2022/06/13 13:03:49;;;;;;;3.57;2.60;;;25.70;46.80;;;;;;4971201;28;20458;-62
2022/06/13 13:06:36;;;;;;;3.63;2.37;;;25.50;47.00;;;;;;4968017;28;20482;-62
2022/06/13 13:09:15;;;;;;;7.87;6.60;;;25.50;47.20;;;;;;4966262;28;20451;-69
2022/06/13 13:11:50;;;;;;;2.90;2.60;;;25.50;47.00;;;;;;4968792;28;21131;-68
2022/06/13 13:14:37;;;;;;;4.63;2.60;;;25.50;47.80;;;;;;4970272;28;20807;-70
2022/06/13 13:17:31;;;;;;;2.50;2.20;;;25.50;46.10;;;;;;4968819;28;20443;-69
2022/06/13 13:20:05;;;;;;;3.03;2.73;;;25.30;44.80;;;;;;4971155;28;20468;-72
2022/06/13 13:22:43;;;;;;;2.60;2.40;;;25.20;45.90;;;;;;4970203;28;20443;-70
2022/06/13 13:25:24;;;;;;;3.63;2.83;;;25.30;46.80;;;;;;4964536;28;20462;-70
2022/06/13 13:28:16;;;;;;;3.90;2.70;;;25.30;46.30;;;;;;4971526;28;20436;-72
2022/06/13 13:30:50;;;;;;;3.07;2.73;;;25.20;46.80;;;;;;4969506;28;20467;-73
2022/06/13 13:33:27;;;;;;;4.30;2.73;;;25.20;47.40;;;;;;4970055;28;20459;-64
2022/06/13 13:36:01;;;;;;;3.10;2.70;;;25.40;46.80;;;;;;4972724;28;20438;-63
2022/06/13 13:38:37;;;;;;;3.97;3.67;;;25.50;47.70;;;;;;4965923;28;20448;-68
2022/06/13 13:41:49;;;;;;;4.77;2.73;;;25.50;47.10;;;;;;4970177;28;20464;-70
2022/06/13 13:44:25;;;;;;;5.30;1.97;;;25.20;46.90;;;;;;4964606;28;20443;-70
2022/06/13 13:47:02;;;;;;;3.40;2.17;;;25.20;46.40;;;;;;4968589;28;20445;-65
2022/06/13 13:49:39;;;;;;;2.80;2.40;;;25.20;47.00;;;;;;4964022;28;20473;-65
2022/06/13 13:52:15;;;;;;;4.10;2.10;;;25.00;46.20;;;;;;4966107;28;20499;-70
2022/06/13 13:54:53;;;;;;;3.27;2.60;;;25.00;46.70;;;;;;4968272;28;20447;-63
2022/06/13 13:57:27;;;;;;;2.40;2.10;;;25.20;46.50;;;;;;4958892;28;20470;-70